Time;durP1;ratioP1;P1;durP2;ratioP2;P2;SDS_P1;SDS_P2;PMS_P1;PMS_P2;Temp;Humidity;BMP_temperature;BMP_pressure;BME280_temperature;BME280_humidity;BME280_pressure;Samples;Min_cycle;Max_cycle;Signal;HPM_P1;HPM_P2
2023/09/27 00:01:56;;;;;;;13.52;10.98;;;;;;;13.71;96.59;101948.13;4896663;29;20051;-72
2023/09/27 00:04:23;;;;;;;;;;;;;;;13.74;98.08;101945.72;4861926;29;20068;-73
2023/09/27 00:06:52;;;;;;;14.90;12.63;;;;;;;13.73;98.80;101937.91;4897286;29;20398;-74
2023/09/27 00:09:18;;;;;;;13.80;11.80;;;;;;;13.72;98.12;101942.47;4863082;29;20082;-72
2023/09/27 00:11:44;;;;;;;;;;;;;;;13.74;98.26;101940.31;4860164;29;20494;-74
2023/09/27 00:14:09;;;;;;;15.32;13.63;;;;;;;13.70;98.54;101950.03;4891374;29;20392;-75
2023/09/27 00:16:35;;;;;;;15.15;12.10;;;;;;;13.70;98.10;101952.72;4861662;29;20099;-73
2023/09/27 00:19:03;;;;;;;;;;;;;;;13.72;98.97;101957.81;4862766;29;20570;-74
2023/09/27 00:21:28;;;;;;;11.43;9.63;;;;;;;13.69;98.69;101966.44;4900540;29;19919;-72
2023/09/27 00:23:55;;;;;;;;;;;;;;;13.71;98.48;101975.88;4884831;29;20052;-75
2023/09/27 00:26:21;;;;;;;12.55;11.25;;;;;;;13.69;98.87;101972.63;4898914;29;19920;-74
2023/09/27 00:28:48;;;;;;;14.60;12.38;;;;;;;13.69;98.53;101977.22;4890315;29;20044;-72
2023/09/27 00:31:16;;;;;;;14.52;12.32;;;;;;;13.68;98.87;101973.69;4872456;29;20044;-74
2023/09/27 00:33:42;;;;;;;13.70;12.30;;;;;;;13.66;98.76;101959.66;4876831;29;20131;-74
2023/09/27 00:36:09;;;;;;;12.90;11.60;;;;;;;13.64;98.22;101968.00;4894309;29;20533;-77
2023/09/27 00:38:34;;;;;;;16.50;12.40;;;;;;;13.63;98.20;101970.97;4874829;29;20041;-75
2023/09/27 00:41:00;;;;;;;;;;;;;;;13.60;98.48;101974.97;4878995;29;20100;-75
2023/09/27 00:43:32;;;;;;;13.32;11.93;;;;;;;13.55;98.08;101974.16;4874498;29;19924;-75
2023/09/27 00:46:03;;;;;;;12.27;10.68;;;;;;;13.52;97.24;101961.19;4885863;29;20100;-74
2023/09/27 00:48:30;;;;;;;12.27;10.25;;;;;;;13.50;96.89;101960.66;4871273;29;20052;-72
2023/09/27 00:50:56;;;;;;;11.65;10.38;;;;;;;13.44;96.65;101959.00;4878133;29;20043;-76
2023/09/27 00:53:25;;;;;;;12.77;11.48;;;;;;;13.43;96.79;101960.06;4863465;29;20583;-74
2023/09/27 00:55:52;;;;;;;12.55;10.95;;;;;;;13.41;96.94;101962.19;4892995;29;20039;-75
2023/09/27 00:58:20;;;;;;;13.57;11.88;;;;;;;13.35;97.11;101956.81;4863135;29;20040;-76
2023/09/27 01:00:49;;;;;;;13.43;10.98;;;;;;;13.32;96.97;101956.50;4879026;29;20071;-76
2023/09/27 01:03:15;;;;;;;12.40;11.10;;;;;;;13.29;97.11;101960.53;4874864;29;20036;-77
2023/09/27 01:05:44;;;;;;;;;;;;;;;13.25;97.05;101970.16;4876628;29;20117;-77
2023/09/27 01:08:12;;;;;;;13.63;10.63;;;;;;;13.23;96.97;101961.53;4876790;29;19949;-72
2023/09/27 01:10:37;;;;;;;;;;;;;;;13.22;96.36;101949.16;4878348;29;20048;-75
2023/09/27 01:13:03;;;;;;;10.50;8.80;;;;;;;13.17;96.25;101943.72;4867546;23;20521;-79
2023/09/27 01:15:33;;;;;;;13.68;12.20;;;;;;;13.17;97.00;101943.72;4828764;29;20040;-78
2023/09/27 01:18:00;;;;;;;14.27;12.38;;;;;;;13.14;97.49;101955.00;4830501;29;20719;-77
2023/09/27 01:20:27;;;;;;;12.23;10.77;;;;;;;13.11;97.46;101958.19;4836204;29;20054;-80
2023/09/27 01:23:00;;;;;;;12.63;11.25;;;;;;;13.10;97.33;101946.63;4832280;29;20562;-78
2023/09/27 01:25:31;;;;;;;12.55;10.90;;;;;;;13.06;97.32;101952.75;4847474;29;20045;-78
2023/09/27 01:27:58;;;;;;;10.88;9.70;;;;;;;13.04;96.71;101949.53;4833010;29;20488;-77
2023/09/27 01:30:25;;;;;;;11.80;10.57;;;;;;;13.01;96.25;101947.38;4849257;29;20057;-77
2023/09/27 01:32:51;;;;;;;12.68;10.27;;;;;;;13.00;96.36;101951.09;4864855;29;20034;-78
2023/09/27 01:35:17;;;;;;;;;;;;;;;12.99;96.87;101955.66;4840881;29;20312;-78
2023/09/27 01:37:42;;;;;;;12.93;11.55;;;;;;;12.95;97.54;101959.13;4864567;29;19920;-79
2023/09/27 01:40:16;;;;;;;;;;;;;;;12.93;97.69;101950.50;4844394;29;20049;-79
2023/09/27 01:42:43;;;;;;;12.60;11.30;;;;;;;12.84;98.00;101945.59;4845477;29;19920;-78
2023/09/27 01:45:12;;;;;;;11.98;10.07;;;;;;;12.80;97.83;101941.81;4831223;29;20041;-78
2023/09/27 01:47:39;;;;;;;13.23;11.77;;;;;;;12.79;97.28;101937.47;4834874;29;20046;-78
2023/09/27 01:50:07;;;;;;;12.05;10.75;;;;;;;12.78;97.68;101933.16;4841520;29;20366;-79
2023/09/27 01:52:33;;;;;;;15.02;11.93;;;;;;;12.72;97.22;101928.81;4819080;29;20033;-78
2023/09/27 01:54:58;;;;;;;;;;;;;;;12.74;97.44;101934.75;4839717;29;20044;-78
2023/09/27 01:57:24;;;;;;;13.50;10.80;;;;;;;12.73;97.91;101933.09;4857869;29;19984;-77
2023/09/27 01:59:50;;;;;;;11.77;10.57;;;;;;;12.71;97.22;101937.13;4830536;29;20065;-78
2023/09/27 02:02:16;;;;;;;;;;;;;;;12.70;97.78;101941.69;4849063;29;20120;-78
2023/09/27 02:04:42;;;;;;;12.90;11.00;;;;;;;12.67;97.91;101942.22;4834542;29;19924;-77
2023/09/27 02:07:07;;;;;;;;;;;;;;;12.66;97.69;101945.94;4849364;29;20041;-78
2023/09/27 02:09:33;;;;;;;13.98;10.30;;;;;;;12.62;97.87;101949.41;4848245;29;19930;-77
2023/09/27 02:11:59;;;;;;;12.30;11.00;;;;;;;12.63;97.99;101946.47;4844990;29;20049;-78
2023/09/27 02:14:25;;;;;;;;;;;;;;;12.65;98.26;101947.00;4849714;29;20045;-78
2023/09/27 02:16:51;;;;;;;13.30;11.05;;;;;;;12.63;98.89;101951.84;4819657;29;19920;-78
2023/09/27 02:19:17;;;;;;;12.82;11.10;;;;;;;12.57;98.53;101942.91;4801527;29;20764;-78
2023/09/27 02:21:42;;;;;;;;;;;;;;;12.57;98.47;101948.28;4850005;29;20076;-78
2023/09/27 02:24:09;;;;;;;12.00;10.15;;;;;;;12.52;98.21;101958.16;4850872;29;19920;-79
2023/09/27 02:26:36;;;;;;;12.43;9.65;;;;;;;12.52;97.73;101960.84;4849180;29;20059;-78
2023/09/27 02:29:02;;;;;;;13.85;11.30;;;;;;;12.49;97.61;101964.06;4838365;29;20504;-79
2023/09/27 02:31:27;;;;;;;12.75;11.05;;;;;;;12.48;97.57;101975.88;4851738;29;20074;-76
2023/09/27 02:33:53;;;;;;;13.00;10.68;;;;;;;12.47;97.32;101972.38;4831274;29;20472;-76
2023/09/27 02:36:19;;;;;;;;;;;;;;;12.46;97.69;101977.97;4834790;29;20030;-77
2023/09/27 02:38:44;;;;;;;12.32;11.02;;;;;;;12.41;97.22;101983.31;4849334;29;19993;-76
2023/09/27 02:41:10;;;;;;;13.40;10.55;;;;;;;12.38;97.03;101981.13;4850263;29;20052;-77
2023/09/27 02:43:36;;;;;;;13.10;11.02;;;;;;;12.37;97.66;101984.88;4850864;29;20038;-76
2023/09/27 02:46:01;;;;;;;15.43;11.90;;;;;;;12.35;97.47;101981.63;4832111;29;20086;-77
2023/09/27 02:48:28;;;;;;;;;;;;;;;12.29;96.97;101970.81;4850959;29;20679;-77
2023/09/27 02:50:55;;;;;;;14.13;10.90;;;;;;;12.25;96.66;101967.00;4850841;29;20373;-77
2023/09/27 02:53:21;;;;;;;11.27;10.15;;;;;;;12.25;96.58;101967.00;4837485;29;20081;-76
2023/09/27 02:55:47;;;;;;;11.25;10.05;;;;;;;12.22;96.10;101969.41;4856512;29;20038;-77
2023/09/27 02:58:13;;;;;;;12.85;10.85;;;;;;;12.18;95.85;101966.38;4845976;29;20040;-77
2023/09/27 03:00:40;;;;;;;;;;;;;;;12.16;96.31;101979.25;4842793;29;20030;-76
2023/09/27 03:03:08;;;;;;;11.40;9.88;;;;;;;12.12;96.28;101972.75;4822521;29;19969;-77
2023/09/27 03:05:35;;;;;;;11.30;10.07;;;;;;;12.08;96.37;101979.69;4834416;29;20045;-76
2023/09/27 03:08:02;;;;;;;11.20;10.00;;;;;;;12.09;96.62;101978.63;4842547;29;20041;-76
2023/09/27 03:10:28;;;;;;;11.73;10.30;;;;;;;12.08;96.54;101986.94;4845734;29;20045;-77
2023/09/27 03:12:58;;;;;;;12.95;11.52;;;;;;;12.07;96.78;101983.44;4831700;29;20045;-77
2023/09/27 03:15:24;;;;;;;17.60;13.50;;;;;;;12.07;97.98;101991.50;4835238;29;20064;-78
2023/09/27 03:17:50;;;;;;;12.57;11.27;;;;;;;12.03;98.38;101990.38;4834237;29;20064;-75
2023/09/27 03:20:18;;;;;;;15.27;10.65;;;;;;;12.04;98.29;101989.28;4848352;29;20045;-77
2023/09/27 03:22:48;;;;;;;14.68;10.95;;;;;;;12.01;97.87;101982.56;4843841;29;20041;-76
2023/09/27 03:25:17;;;;;;;13.68;9.95;;;;;;;12.00;97.80;101991.69;4831518;29;20030;-76
2023/09/27 03:27:42;;;;;;;13.45;10.18;;;;;;;11.99;97.66;101981.19;4832137;29;20060;-77
2023/09/27 03:30:10;;;;;;;11.13;9.20;;;;;;;11.95;97.15;101974.69;4832264;29;20061;-77
2023/09/27 03:32:38;;;;;;;12.95;10.00;;;;;;;11.98;97.62;101987.59;4846603;29;20531;-77
2023/09/27 03:35:04;;;;;;;;;;;;;;;11.98;97.60;101998.34;4847239;29;20029;-77
2023/09/27 03:37:30;;;;;;;11.30;8.93;;;;;;;11.91;97.53;101992.34;4850195;29;19924;-78
2023/09/27 03:39:56;;;;;;;10.95;9.82;;;;;;;11.92;97.14;101977.84;4813531;29;20045;-77
2023/09/27 03:42:23;;;;;;;10.52;9.05;;;;;;;11.91;97.06;101989.66;4836686;29;20048;-76
2023/09/27 03:44:50;;;;;;;12.50;10.50;;;;;;;11.89;97.22;101989.09;4831337;29;20045;-77
2023/09/27 03:47:15;;;;;;;14.20;10.70;;;;;;;11.90;97.28;101996.09;4836122;29;20567;-77
2023/09/27 03:49:41;;;;;;;12.60;10.38;;;;;;;11.90;97.43;101996.09;4843652;29;20166;-77
2023/09/27 03:52:07;;;;;;;;;;;;;;;11.89;97.19;101984.53;4830630;29;20539;-76
2023/09/27 03:54:33;;;;;;;11.55;9.55;;;;;;;11.88;97.34;101988.28;4840086;29;19920;-77
2023/09/27 03:56:59;;;;;;;11.05;9.95;;;;;;;11.90;97.48;101988.03;4847877;29;20041;-77
2023/09/27 03:59:25;;;;;;;;;;;;;;;11.92;99.06;101988.59;4818970;29;20038;-77
2023/09/27 04:01:51;;;;;;;14.60;11.88;;;;;;;11.88;99.34;101984.78;4827191;29;20378;-77
2023/09/27 04:04:17;;;;;;;;;;;;;;;11.90;99.60;101988.84;4844403;29;20045;-76
2023/09/27 04:06:43;;;;;;;12.73;10.73;;;;;;;11.87;99.53;101991.22;4818138;29;19921;-77
2023/09/27 04:09:09;;;;;;;12.50;11.18;;;;;;;11.88;99.83;101992.84;4827676;29;20864;-78
2023/09/27 04:11:36;;;;;;;12.43;10.57;;;;;;;11.86;99.36;101994.97;4845408;29;20124;-77
2023/09/27 04:14:01;;;;;;;13.25;11.57;;;;;;;11.86;99.31;101989.63;4864148;29;20045;-77
2023/09/27 04:16:30;;;;;;;12.90;11.20;;;;;;;11.83;99.21;101990.09;4848729;29;20046;-77
2023/09/27 04:18:57;;;;;;;12.18;10.60;;;;;;;11.81;98.69;101976.13;4828909;29;20041;-77
2023/09/27 04:21:23;;;;;;;10.82;9.00;;;;;;;11.81;98.17;101986.84;4845162;29;20120;-76
2023/09/27 04:23:56;;;;;;;12.10;10.55;;;;;;;11.79;97.86;101987.06;4831997;29;20480;-77
2023/09/27 04:26:26;;;;;;;11.18;9.68;;;;;;;11.77;98.25;101986.50;4843864;29;20057;-76
2023/09/27 04:28:53;;;;;;;14.23;10.65;;;;;;;11.76;98.28;102000.97;4845546;29;20037;-78
2023/09/27 04:31:20;;;;;;;13.52;11.75;;;;;;;11.73;98.41;102015.69;4844864;29;20037;-77
2023/09/27 04:33:47;;;;;;;11.77;9.77;;;;;;;11.72;98.50;102010.59;4860445;29;20415;-77
2023/09/27 04:36:17;;;;;;;10.90;9.30;;;;;;;11.66;97.92;102000.84;4845752;29;20037;-77
2023/09/27 04:38:49;;;;;;;10.77;8.88;;;;;;;11.64;97.50;101994.88;4840309;29;20535;-77
2023/09/27 04:41:16;;;;;;;13.25;9.85;;;;;;;11.61;97.39;101995.38;4850513;29;20586;-76
2023/09/27 04:43:42;;;;;;;9.82;8.82;;;;;;;11.61;96.84;101987.34;4830540;29;20069;-77
2023/09/27 04:46:13;;;;;;;11.18;8.18;;;;;;;11.59;96.76;101989.47;4831904;29;20105;-76
2023/09/27 04:48:39;;;;;;;10.93;9.32;;;;;;;11.57;96.81;101983.50;4843222;29;20046;-76
2023/09/27 04:51:05;;;;;;;11.50;9.43;;;;;;;11.56;96.90;101984.56;4827569;29;20111;-77
2023/09/27 04:53:34;;;;;;;9.55;8.48;;;;;;;11.55;97.62;101993.69;4852202;29;20120;-76
2023/09/27 04:56:02;;;;;;;11.27;9.57;;;;;;;11.52;97.51;101983.47;4834258;29;20160;-77
2023/09/27 04:58:28;;;;;;;10.55;9.50;;;;;;;11.52;97.93;101989.63;4839355;29;20098;-75
2023/09/27 05:00:53;;;;;;;10.55;8.95;;;;;;;11.49;98.00;102000.84;4847329;29;20033;-75
2023/09/27 05:03:21;;;;;;;;;;;;;;;11.48;98.09;101999.22;4850290;29;20038;-76
2023/09/27 05:05:47;;;;;;;9.35;7.63;;;;;;;11.44;97.57;102000.75;4855056;29;19924;-75
2023/09/27 05:08:14;;;;;;;12.30;8.60;;;;;;;11.44;97.56;101998.88;4848809;29;20677;-76
2023/09/27 05:10:41;;;;;;;12.10;9.38;;;;;;;11.43;97.95;101996.44;4842825;29;20076;-75
2023/09/27 05:13:06;;;;;;;;;;;;;;;11.46;98.59;102006.69;4842440;29;20128;-77
2023/09/27 05:15:32;;;;;;;10.35;9.25;;;;;;;11.43;98.75;102001.81;4831547;29;20014;-76
2023/09/27 05:17:59;;;;;;;11.68;10.48;;;;;;;11.43;99.46;102007.97;4845199;29;20029;-76
2023/09/27 05:20:25;;;;;;;13.27;11.35;;;;;;;11.43;99.62;102016.03;4831131;29;20045;-76
2023/09/27 05:22:52;;;;;;;10.80;9.70;;;;;;;11.45;99.84;102027.34;4837478;29;20048;-75
2023/09/27 05:25:17;;;;;;;10.95;9.85;;;;;;;11.46;99.79;102018.25;4852824;29;20041;-77
2023/09/27 05:27:43;;;;;;;10.05;9.02;;;;;;;11.49;100.00;102030.34;4851319;29;20037;-78
2023/09/27 05:30:13;;;;;;;11.05;9.95;;;;;;;11.49;100.00;102027.66;4833596;29;20168;-76
2023/09/27 05:32:41;;;;;;;10.25;9.13;;;;;;;11.49;99.50;102019.63;4850387;29;20551;-76
2023/09/27 05:35:07;;;;;;;9.07;8.07;;;;;;;11.49;99.03;102022.28;4833869;29;20044;-77
2023/09/27 05:37:33;;;;;;;9.77;8.38;;;;;;;11.51;98.84;102024.72;4829584;29;20515;-76
2023/09/27 05:40:04;;;;;;;10.80;9.63;;;;;;;11.54;99.82;102038.47;4844841;29;20045;-77
2023/09/27 05:42:30;;;;;;;11.90;10.70;;;;;;;11.59;100.00;102033.19;4852306;29;20064;-75
2023/09/27 05:44:56;;;;;;;10.40;9.32;;;;;;;11.58;100.00;102020.81;4845500;29;20086;-76
2023/09/27 05:47:24;;;;;;;9.02;8.05;;;;;;;11.61;100.00;102014.16;4864396;29;20050;-75
2023/09/27 05:49:50;;;;;;;9.88;8.88;;;;;;;11.63;100.00;102017.41;4845714;29;20034;-75
2023/09/27 05:52:17;;;;;;;9.75;8.60;;;;;;;11.66;100.00;102019.63;4845173;29;20052;-76
2023/09/27 05:54:44;;;;;;;11.02;9.35;;;;;;;11.66;100.00;102027.66;4852042;29;20030;-75
2023/09/27 05:57:10;;;;;;;12.38;10.50;;;;;;;11.69;100.00;102022.59;4848950;29;20037;-76
2023/09/27 05:59:40;;;;;;;12.57;9.60;;;;;;;11.74;100.00;102009.28;4845677;29;20077;-75
2023/09/27 06:02:07;;;;;;;11.25;9.55;;;;;;;11.81;100.00;102024.44;4836986;29;20049;-75
2023/09/27 06:04:33;;;;;;;10.63;9.52;;;;;;;11.86;100.00;102024.50;4832650;29;20050;-76
2023/09/27 06:06:59;;;;;;;11.40;10.20;;;;;;;11.92;100.00;102015.44;4850576;29;20083;-75
2023/09/27 06:09:24;;;;;;;11.05;9.82;;;;;;;12.01;100.00;102020.16;4848849;29;20134;-75
2023/09/27 06:11:50;;;;;;;13.15;10.77;;;;;;;12.13;100.00;102013.88;4844781;29;20124;-75
2023/09/27 06:14:16;;;;;;;13.50;11.38;;;;;;;12.24;100.00;102015.59;4848447;29;20068;-77
2023/09/27 06:16:45;;;;;;;12.02;10.25;;;;;;;12.33;100.00;102015.97;4835409;29;20411;-75
2023/09/27 06:19:11;;;;;;;12.55;11.25;;;;;;;12.38;100.00;102013.34;4850527;29;20065;-75
2023/09/27 06:21:37;;;;;;;11.57;10.30;;;;;;;12.45;100.00;102024.72;4819252;29;20108;-75
2023/09/27 06:24:05;;;;;;;13.10;11.65;;;;;;;12.49;100.00;102015.91;4849697;29;20045;-76
2023/09/27 06:26:31;;;;;;;10.77;9.68;;;;;;;12.53;100.00;102005.47;4851361;29;20089;-76
2023/09/27 06:28:58;;;;;;;11.07;9.98;;;;;;;12.58;100.00;102013.59;4817362;29;20045;-77
2023/09/27 06:31:23;;;;;;;11.23;9.93;;;;;;;12.65;100.00;102013.41;4832360;29;20079;-77
2023/09/27 06:33:49;;;;;;;12.30;10.10;;;;;;;12.71;100.00;102015.06;4848117;29;20045;-77
2023/09/27 06:36:16;;;;;;;11.35;10.18;;;;;;;12.75;100.00;102014.31;4833465;29;20041;-75
2023/09/27 06:38:42;;;;;;;11.63;10.43;;;;;;;12.80;100.00;102011.69;4846844;29;20046;-77
2023/09/27 06:41:08;;;;;;;11.35;10.13;;;;;;;12.86;100.00;102012.53;4831574;29;20037;-75
2023/09/27 06:43:34;;;;;;;;;;;;;;;12.97;100.00;102021.53;4830683;29;20088;-76
2023/09/27 06:46:07;;;;;;;11.20;10.02;;;;;;;13.02;100.00;102024.28;4831428;29;19962;-77
2023/09/27 06:48:33;;;;;;;11.18;9.57;;;;;;;13.12;100.00;102032.41;4849656;29;20489;-78
2023/09/27 06:50:58;;;;;;;;;;;;;;;13.24;100.00;102035.00;4815178;29;20037;-75
2023/09/27 06:53:24;;;;;;;10.77;9.23;;;;;;;13.31;100.00;102032.91;4851213;29;19920;-76
2023/09/27 06:55:53;;;;;;;11.35;9.30;;;;;;;13.37;100.00;102032.69;4844032;29;20154;-76
2023/09/27 06:58:23;;;;;;;10.82;9.55;;;;;;;13.47;100.00;102023.06;4833259;29;20041;-75
2023/09/27 07:00:51;;;;;;;10.25;9.18;;;;;;;13.57;100.00;102026.66;4862253;29;20040;-76
2023/09/27 07:03:19;;;;;;;11.25;10.05;;;;;;;13.68;99.90;102016.75;4821055;29;20038;-77
2023/09/27 07:05:46;;;;;;;12.18;9.00;;;;;;;13.77;99.38;102028.66;4851601;29;20045;-76
2023/09/27 07:08:13;;;;;;;10.65;9.20;;;;;;;13.87;99.08;102019.84;4849185;29;20025;-75
2023/09/27 07:10:40;;;;;;;8.65;7.82;;;;;;;13.97;99.10;102036.06;4845394;29;20082;-75
2023/09/27 07:13:06;;;;;;;8.75;7.85;;;;;;;14.02;97.99;102043.34;4873870;23;20056;-80
2023/09/27 07:15:32;;;;;;;10.60;8.73;;;;;;;14.11;98.54;102047.19;4892169;29;20029;-79
2023/09/27 07:17:58;;;;;;;;;;;;;;;14.19;97.33;102049.38;4870453;29;20044;-79
2023/09/27 07:20:27;;;;;;;8.82;7.80;;;;;;;14.24;97.37;102052.09;4859008;29;19920;-78
2023/09/27 07:22:54;;;;;;;8.95;7.97;;;;;;;14.34;96.95;102045.94;4879931;29;20048;-80
2023/09/27 07:25:21;;;;;;;8.68;7.78;;;;;;;14.42;96.73;102046.22;4877417;29;20039;-79
2023/09/27 07:27:48;;;;;;;10.07;7.78;;;;;;;14.52;96.98;102058.19;4878701;29;20036;-79
2023/09/27 07:30:18;;;;;;;9.50;8.18;;;;;;;14.58;96.38;102057.13;4860326;29;20040;-78
2023/09/27 07:32:46;;;;;;;8.38;7.43;;;;;;;14.67;96.30;102061.72;4860095;29;20072;-78
2023/09/27 07:35:16;;;;;;;9.45;8.32;;;;;;;14.74;95.58;102065.00;4866940;29;20069;-78
2023/09/27 07:37:43;;;;;;;11.25;8.20;;;;;;;14.86;95.75;102078.25;4885409;29;20070;-77
2023/09/27 07:40:13;;;;;;;8.70;7.80;;;;;;;14.93;95.13;102065.31;4855252;29;20041;-78
2023/09/27 07:42:43;;;;;;;8.25;7.45;;;;;;;15.03;95.15;102078.81;4866860;29;20499;-79
2023/09/27 07:45:28;;;;;;;8.32;7.35;;;;;;;15.14;95.40;102062.66;4873921;29;20037;-79
2023/09/27 07:47:54;;;;;;;9.23;8.07;;;;;;;15.20;93.99;102075.06;4876221;29;20045;-79
2023/09/27 07:50:33;;;;;;;9.25;7.18;;;;;;;15.31;93.71;102065.91;4849667;29;20033;-78
2023/09/27 07:53:03;;;;;;;7.10;6.40;;;;;;;15.42;93.56;102074.81;4860563;29;20045;-78
2023/09/27 07:55:32;;;;;;;8.80;7.10;;;;;;;15.44;92.87;102084.25;4844768;29;20056;-79
2023/09/27 07:57:58;;;;;;;11.95;8.10;;;;;;;15.46;92.70;102086.72;4890823;29;20037;-79
2023/09/27 08:00:28;;;;;;;9.05;7.32;;;;;;;15.48;92.67;102082.66;4842673;29;20054;-79
2023/09/27 08:02:55;;;;;;;8.20;7.05;;;;;;;15.59;91.91;102078.06;4874669;29;20056;-76
2023/09/27 08:05:22;;;;;;;7.18;6.45;;;;;;;15.65;90.96;102076.22;4856311;29;20044;-76
2023/09/27 08:07:53;;;;;;;7.78;6.53;;;;;;;15.78;91.34;102087.28;4857256;29;20047;-76
2023/09/27 08:10:19;;;;;;;8.48;7.47;;;;;;;15.83;90.73;102089.16;4874641;29;20029;-77
2023/09/27 08:12:45;;;;;;;9.48;7.78;;;;;;;15.83;90.19;102089.16;4853126;29;20097;-78
2023/09/27 08:15:12;;;;;;;10.55;7.72;;;;;;;15.84;90.75;102091.56;4836602;29;20033;-80
2023/09/27 08:17:39;;;;;;;9.07;6.90;;;;;;;15.95;90.19;102105.06;4871449;29;20112;-77
2023/09/27 08:20:07;;;;;;;7.78;6.82;;;;;;;15.98;90.09;102102.63;4851912;29;20053;-77
2023/09/27 08:22:34;;;;;;;6.93;6.22;;;;;;;16.13;90.38;102103.72;4855548;29;20045;-78
2023/09/27 08:25:00;;;;;;;8.18;7.32;;;;;;;16.27;89.78;102102.03;4857608;29;20097;-78
2023/09/27 08:27:26;;;;;;;9.73;7.25;;;;;;;16.33;89.63;102114.47;4869229;29;20048;-77
2023/09/27 08:29:52;;;;;;;7.93;6.45;;;;;;;16.45;90.01;102117.66;4852362;29;20033;-77
2023/09/27 08:32:18;;;;;;;8.13;7.20;;;;;;;16.59;89.80;102121.38;4866914;29;20483;-76
2023/09/27 08:34:46;;;;;;;7.63;6.50;;;;;;;16.75;89.78;102126.78;4853897;29;20100;-76
2023/09/27 08:37:11;;;;;;;8.38;6.57;;;;;;;16.82;89.77;102116.47;4859453;29;20068;-77
2023/09/27 08:39:38;;;;;;;6.43;5.75;;;;;;;16.89;89.77;102117.78;4868905;29;20069;-76
2023/09/27 08:42:04;;;;;;;7.05;6.25;;;;;;;17.00;88.59;102115.84;4853810;29;20044;-78
2023/09/27 08:44:32;;;;;;;9.38;6.50;;;;;;;17.12;89.12;102126.31;4851476;29;20055;-73
2023/09/27 08:47:00;;;;;;;7.55;6.32;;;;;;;17.18;87.71;102120.59;4861379;29;20033;-77
2023/09/27 08:49:25;;;;;;;7.22;6.15;;;;;;;17.29;86.83;102117.81;4871296;29;20033;-78
2023/09/27 08:51:53;;;;;;;8.02;6.13;;;;;;;17.40;86.47;102109.31;4870932;29;20112;-79
2023/09/27 08:54:21;;;;;;;9.10;6.28;;;;;;;17.51;86.46;102101.94;4841691;29;20045;-78
2023/09/27 08:56:51;;;;;;;7.20;6.20;;;;;;;17.62;86.08;102103.47;4874171;29;20103;-77
2023/09/27 08:59:20;;;;;;;10.90;7.40;;;;;;;17.72;84.89;102098.00;4866582;29;20123;-78
2023/09/27 09:01:47;;;;;;;6.72;6.03;;;;;;;17.86;83.98;102089.19;4858516;29;20045;-76
2023/09/27 09:04:13;;;;;;;7.78;6.35;;;;;;;18.00;83.47;102071.16;4871802;29;20052;-77
2023/09/27 09:06:40;;;;;;;6.13;5.53;;;;;;;18.07;82.01;102066.22;4838738;29;20101;-77
2023/09/27 09:09:13;;;;;;;8.02;6.80;;;;;;;18.17;81.04;102054.47;4873276;29;20041;-79
2023/09/27 09:11:47;;;;;;;7.80;5.93;;;;;;;18.24;81.20;102060.34;4849149;29;20041;-77
2023/09/27 09:14:23;;;;;;;7.00;6.30;;;;;;;18.35;80.87;102050.16;4872543;29;20048;-77
2023/09/27 09:16:52;;;;;;;8.20;5.93;;;;;;;18.40;80.84;102047.41;4867941;29;20123;-78
2023/09/27 09:19:22;;;;;;;7.40;6.68;;;;;;;18.47;80.49;102040.50;4872805;29;20033;-76
2023/09/27 09:22:08;;;;;;;10.38;6.30;;;;;;;18.53;79.63;102030.41;4858049;29;20152;-76
2023/09/27 09:24:41;;;;;;;10.10;5.93;;;;;;;18.65;81.33;102021.84;4865096;29;20874;-79
2023/09/27 09:27:09;;;;;;;7.88;6.13;;;;;;;18.74;80.35;102020.91;4872258;29;20139;-77
2023/09/27 09:29:45;;;;;;;9.85;6.35;;;;;;;18.78;79.23;102016.53;4849649;29;20041;-77
2023/09/27 09:32:18;;;;;;;7.00;6.30;;;;;;;18.81;79.62;102009.69;4856231;29;20143;-76
2023/09/27 09:34:46;;;;;;;7.72;6.35;;;;;;;18.92;78.52;102004.94;4871165;29;20077;-78
2023/09/27 09:37:28;;;;;;;8.40;6.43;;;;;;;18.97;78.27;102005.66;4870404;29;20033;-73
2023/09/27 09:40:24;;;;;;;7.10;6.20;;;;;;;19.05;78.91;102002.28;4857312;29;20048;-78
2023/09/27 09:42:51;;;;;;;7.22;6.47;;;;;;;19.10;77.97;102001.34;4843233;29;20155;-76
2023/09/27 09:45:18;;;;;;;9.52;7.10;;;;;;;19.17;76.89;101996.38;4855383;29;20498;-77
2023/09/27 09:47:44;;;;;;;7.05;6.35;;;;;;;19.22;76.49;102003.63;4857312;29;20124;-77
2023/09/27 09:50:18;;;;;;;6.60;5.68;;;;;;;19.28;77.33;102003.25;4871694;29;20037;-77
2023/09/27 09:52:50;;;;;;;8.23;6.72;;;;;;;19.33;76.84;102016.75;4865758;29;20041;-76
2023/09/27 09:55:20;;;;;;;9.07;6.28;;;;;;;19.42;76.16;102029.63;4854772;29;20105;-76
2023/09/27 09:57:49;;;;;;;8.23;5.70;;;;;;;19.56;75.06;102023.13;4877467;29;20511;-78
2023/09/27 10:00:25;;;;;;;9.50;6.90;;;;;;;19.62;74.82;102027.38;4841503;29;20228;-76
2023/09/27 10:02:59;;;;;;;6.72;6.00;;;;;;;19.70;74.08;102023.16;4854017;29;20206;-76
2023/09/27 10:05:34;;;;;;;6.85;5.78;;;;;;;19.80;74.06;102024.91;4840440;29;20123;-78
2023/09/27 10:07:59;;;;;;;7.55;5.40;;;;;;;19.88;73.54;102018.78;4839286;29;20033;-77
2023/09/27 10:10:26;;;;;;;6.47;5.28;;;;;;;19.99;74.10;102016.66;4870633;29;20403;-75
2023/09/27 10:12:54;;;;;;;6.50;5.28;;;;;;;20.12;74.06;102024.81;4849257;29;20037;-76
2023/09/27 10:15:23;;;;;;;7.35;6.05;;;;;;;20.19;73.23;102018.97;4839534;29;20040;-76
2023/09/27 10:17:50;;;;;;;7.80;5.93;;;;;;;20.31;73.16;102024.69;4850221;29;20033;-78
2023/09/27 10:20:20;;;;;;;8.10;5.20;;;;;;;20.39;74.02;102025.91;4851012;29;20563;-76
2023/09/27 10:22:47;;;;;;;8.35;5.97;;;;;;;20.40;73.19;102039.22;4853948;29;20045;-77
2023/09/27 10:25:28;;;;;;;6.82;5.22;;;;;;;20.39;72.80;102037.59;4852077;29;20037;-77
2023/09/27 10:28:02;;;;;;;6.63;4.50;;;;;;;20.43;72.29;102043.22;4852706;29;20044;-78
2023/09/27 10:30:48;;;;;;;8.48;4.80;;;;;;;20.45;71.72;102036.38;4833599;29;20674;-77
2023/09/27 10:33:14;;;;;;;7.72;4.63;;;;;;;20.55;71.43;102031.84;4851911;29;20040;-77
2023/09/27 10:35:39;;;;;;;6.95;3.88;;;;;;;20.62;69.75;102040.41;4866213;29;20515;-77
2023/09/27 10:38:09;;;;;;;4.78;3.78;;;;;;;20.69;70.15;102038.88;4851650;29;20032;-77
2023/09/27 10:40:45;;;;;;;4.22;3.30;;;;;;;20.81;69.83;102042.97;4840201;29;20029;-77
2023/09/27 10:43:40;;;;;;;6.38;4.10;;;;;;;20.92;67.81;102038.91;4856233;29;20043;-76
2023/09/27 10:46:07;;;;;;;7.10;4.55;;;;;;;20.87;66.40;102042.56;4854483;29;20041;-77
2023/09/27 10:48:37;;;;;;;7.63;4.43;;;;;;;20.87;67.84;102048.00;4858956;29;20116;-78
2023/09/27 10:51:03;;;;;;;6.13;4.38;;;;;;;20.87;69.02;102041.75;4836139;29;20075;-75
2023/09/27 10:53:32;;;;;;;6.68;3.95;;;;;;;20.83;68.16;102030.66;4870647;29;20073;-77
2023/09/27 10:55:58;;;;;;;4.32;3.80;;;;;;;20.81;67.96;102027.44;4841140;29;20040;-78
2023/09/27 10:58:25;;;;;;;5.65;3.90;;;;;;;20.82;70.51;102028.25;4868306;29;20029;-76
2023/09/27 11:00:51;;;;;;;5.53;3.35;;;;;;;20.83;73.08;102036.09;4856341;29;20036;-73
2023/09/27 11:03:18;;;;;;;5.10;3.97;;;;;;;20.77;70.38;102031.09;4876361;29;20044;-78
2023/09/27 11:05:44;;;;;;;7.15;3.72;;;;;;;20.79;68.87;102024.22;4856551;29;20137;-74
2023/09/27 11:08:10;;;;;;;6.20;3.95;;;;;;;20.79;66.94;102010.59;4836036;29;20890;-76
2023/09/27 11:10:36;;;;;;;5.88;3.80;;;;;;;20.81;67.10;102004.88;4838170;29;20521;-76
2023/09/27 11:13:12;;;;;;;5.60;3.40;;;;;;;20.86;71.25;102002.84;4853214;29;20123;-77
2023/09/27 11:15:39;;;;;;;5.75;3.50;;;;;;;20.84;67.87;102002.31;4833604;29;20132;-79
2023/09/27 11:18:07;;;;;;;5.60;3.63;;;;;;;20.89;71.30;101999.47;4869271;29;20074;-78
2023/09/27 11:20:34;;;;;;;6.15;3.90;;;;;;;20.94;69.23;101999.38;4885513;29;20059;-77
2023/09/27 11:23:03;;;;;;;5.72;3.67;;;;;;;21.09;68.17;101989.22;4837556;29;20047;-75
2023/09/27 11:25:31;;;;;;;4.20;3.55;;;;;;;21.27;66.31;101996.38;4856127;29;20043;-73
2023/09/27 11:27:57;;;;;;;6.45;3.63;;;;;;;21.39;65.37;101987.66;4875440;29;20563;-75